Time;durP1;ratioP1;P1;durP2;ratioP2;P2;SDS_P1;SDS_P2;PMS_P1;PMS_P2;Temp;Humidity;BMP_temperature;BMP_pressure;BME280_temperature;BME280_humidity;BME280_pressure;Samples;Min_cycle;Max_cycle;Signal;HPM_P1;HPM_P2
2023/01/07 00:01:42;;;;;;;1.25;0.93;;;;;;;9.52;100.00;98642.00;5027970;28;20064;-51
2023/01/07 00:04:13;;;;;;;1.25;0.68;;;;;;;9.52;100.00;98637.25;5019630;28;20053;-48
2023/01/07 00:06:42;;;;;;;1.85;0.80;;;;;;;9.53;100.00;98641.59;5028578;28;20045;-48
2023/01/07 00:09:12;;;;;;;6.97;2.10;;;;;;;9.53;100.00;98635.31;5028908;28;20384;-48
2023/01/07 00:11:39;;;;;;;0.80;0.80;;;;;;;9.55;100.00;98633.72;5028246;28;20033;-48
2023/01/07 00:14:09;;;;;;;0.95;0.30;;;;;;;9.56;100.00;98628.97;5027077;28;20049;-48
2023/01/07 00:16:37;;;;;;;0.75;0.35;;;;;;;9.58;100.00;98630.16;5027839;28;20107;-52
2023/01/07 00:19:06;;;;;;;1.02;0.40;;;;;;;9.60;100.00;98619.53;5027077;28;20049;-49
2023/01/07 00:21:33;;;;;;;1.30;1.15;;;;;;;9.60;100.00;98613.22;5026670;28;20472;-48
2023/01/07 00:24:03;;;;;;;1.98;0.30;;;;;;;9.61;100.00;98609.28;5026526;28;20046;-49
2023/01/07 00:26:33;;;;;;;0.30;0.20;;;;;;;9.61;100.00;98610.06;5025041;28;20058;-50
2023/01/07 00:29:00;;;;;;;2.22;0.47;;;;;;;9.63;100.00;98631.78;5025294;28;20037;-52
2023/01/07 00:31:30;;;;;;;2.80;0.68;;;;;;;9.59;100.00;98650.28;5023870;28;20059;-48
2023/01/07 00:36:34;;;;;;;4.18;0.93;;;;;;;9.24;100.00;98655.69;5027485;28;20041;-48
2023/01/07 00:39:05;;;;;;;5.82;1.17;;;;;;;9.06;100.00;98661.88;5028170;28;20046;-51
2023/01/07 00:41:32;;;;;;;4.80;1.45;;;;;;;8.85;100.00;98670.03;5027043;28;20084;-48
2023/01/07 00:43:59;;;;;;;9.98;3.00;;;;;;;8.70;100.00;98660.09;5027165;28;20058;-50
2023/01/07 00:46:25;;;;;;;7.03;1.50;;;;;;;8.54;100.00;98665.09;5007948;28;20044;-49
2023/01/07 00:48:54;;;;;;;13.30;1.92;;;;;;;8.41;100.00;98663.78;5025423;28;20095;-51
2023/01/07 00:51:21;;;;;;;11.30;2.28;;;;;;;8.32;100.00;98652.28;5027622;28;20053;-48
2023/01/07 00:53:48;;;;;;;11.30;1.75;;;;;;;8.27;100.00;98644.38;5027117;28;20503;-48
2023/01/07 00:56:17;;;;;;;12.68;2.45;;;;;;;8.25;100.00;98641.97;5024413;28;20057;-50
2023/01/07 00:58:44;;;;;;;7.55;1.80;;;;;;;8.27;100.00;98647.13;5027126;28;20127;-48
2023/01/07 01:01:12;;;;;;;9.68;1.40;;;;;;;8.25;100.00;98638.41;5025395;28;20045;-48
2023/01/07 01:03:39;;;;;;;12.88;4.05;;;;;;;8.26;100.00;98635.25;5007304;28;20503;-49
2023/01/07 01:06:14;;;;;;;8.07;1.90;;;;;;;8.27;100.00;98628.63;5018179;28;20423;-54
2023/01/07 01:08:43;;;;;;;7.68;1.85;;;;;;;8.26;100.00;98634.50;5022888;28;20049;-48
2023/01/07 01:11:12;;;;;;;8.10;1.70;;;;;;;8.27;100.00;98625.06;5008897;28;20049;-48
2023/01/07 01:13:41;;;;;;;8.60;2.65;;;;;;;8.31;100.00;98617.63;5026943;28;20144;-52
2023/01/07 01:16:11;;;;;;;8.93;1.85;;;;;;;8.31;100.00;98614.88;5027527;28;20697;-48
2023/01/07 01:18:39;;;;;;;6.30;1.63;;;;;;;8.32;100.00;98627.47;5027074;28;20053;-48
2023/01/07 01:21:09;;;;;;;6.10;2.15;;;;;;;8.32;100.00;98624.72;5017028;28;20138;-51
2023/01/07 01:23:36;;;;;;;7.70;1.83;;;;;;;8.32;100.00;98624.72;5014327;28;20111;-48
2023/01/07 01:26:03;;;;;;;7.53;1.52;;;;;;;8.31;100.00;98614.88;5027035;28;20049;-48
2023/01/07 01:28:30;;;;;;;11.05;2.83;;;;;;;8.28;100.00;98597.13;5026963;28;20148;-49
2023/01/07 01:30:57;;;;;;;6.65;1.80;;;;;;;8.27;100.00;98603.81;5027059;28;20414;-53
2023/01/07 01:33:23;;;;;;;10.98;2.03;;;;;;;8.26;100.00;98593.91;5026948;28;20052;-48
2023/01/07 01:35:50;;;;;;;7.80;1.80;;;;;;;8.26;100.00;98593.91;5026579;28;20064;-47
2023/01/07 01:38:17;;;;;;;11.25;2.95;;;;;;;8.24;100.00;98604.53;5025848;28;20049;-48
2023/01/07 01:40:43;;;;;;;9.60;2.00;;;;;;;8.22;100.00;98603.34;5026950;28;20046;-48
2023/01/07 01:43:28;;;;;;;12.30;2.20;;;;;;;8.21;100.00;98605.31;5027104;28;20060;-48
2023/01/07 01:45:57;;;;;;;12.65;3.88;;;;;;;8.21;100.00;98605.31;5026585;28;20128;-47
2023/01/07 01:48:24;;;;;;;8.32;2.35;;;;;;;8.22;100.00;98606.09;5026666;28;20403;-49
2023/01/07 01:50:52;;;;;;;9.43;3.30;;;;;;;8.21;100.00;98599.00;5026715;28;20060;-48
2023/01/07 01:53:28;;;;;;;7.47;1.98;;;;;;;8.20;100.00;98580.88;5026551;28;20124;-49
2023/01/07 01:56:06;;;;;;;11.38;1.65;;;;;;;8.18;100.00;98586.00;5026152;28;20049;-48
2023/01/07 01:58:37;;;;;;;8.45;2.15;;;;;;;8.17;100.00;98601.72;5022857;28;20045;-47
2023/01/07 02:01:04;;;;;;;12.27;2.40;;;;;;;8.17;100.00;98593.47;5024206;28;20100;-52
2023/01/07 02:03:34;;;;;;;10.02;2.40;;;;;;;8.19;100.00;98587.56;5006947;28;20423;-48
2023/01/07 02:06:01;;;;;;;6.32;2.03;;;;;;;8.17;100.00;98587.16;5015224;28;20451;-48
2023/01/07 02:08:28;;;;;;;11.48;2.38;;;;;;;8.19;100.00;98579.28;5026407;28;20406;-48
2023/01/07 02:11:07;;;;;;;9.90;2.40;;;;;;;8.19;100.00;98574.56;5025726;28;20120;-49
2023/01/07 02:14:01;;;;;;;5.30;2.30;;;;;;;8.18;100.00;98569.47;5022881;28;20080;-54
2023/01/07 02:16:34;;;;;;;7.65;1.65;;;;;;;8.18;100.00;98558.44;5028233;28;20507;-51
2023/01/07 02:19:37;;;;;;;6.72;1.63;;;;;;;8.18;100.00;98577.72;5025482;28;20446;-50
2023/01/07 02:22:22;;;;;;;10.43;1.88;;;;;;;8.17;100.00;98570.63;5017003;28;20045;-48
2023/01/07 02:25:11;;;;;;;7.13;1.50;;;;;;;8.18;100.00;98561.19;5026164;28;20052;-50
2023/01/07 02:28:05;;;;;;;10.40;1.63;;;;;;;8.18;100.00;98577.72;5025241;28;20065;-48
2023/01/07 02:30:49;;;;;;;6.93;1.30;;;;;;;8.18;100.00;98570.22;5016983;28;20056;-48
2023/01/07 02:33:22;;;;;;;4.32;1.95;;;;;;;8.17;100.00;98559.59;5025477;28;20060;-52
2023/01/07 02:36:03;;;;;;;4.15;2.03;;;;;;;8.16;100.00;98560.75;5022439;28;20053;-50
2023/01/07 02:38:42;;;;;;;5.40;1.30;;;;;;;8.14;100.00;98552.09;5023151;28;20406;-53
2023/01/07 02:41:15;;;;;;;11.32;1.92;;;;;;;8.17;100.00;98545.81;5023012;28;20303;-49
2023/01/07 02:43:55;;;;;;;6.68;1.90;;;;;;;8.15;100.00;98537.94;5026344;28;20121;-48
2023/01/07 02:46:46;;;;;;;7.07;1.60;;;;;;;8.16;100.00;98538.72;5022137;28;20346;-49
2023/01/07 02:49:15;;;;;;;6.30;1.80;;;;;;;8.17;100.00;98535.59;5023848;28;20037;-48
2023/01/07 02:51:43;;;;;;;6.60;1.83;;;;;;;8.16;100.00;98524.94;5024654;28;20428;-48
2023/01/07 02:54:20;;;;;;;8.77;2.03;;;;;;;8.17;100.00;98532.03;5025859;28;20052;-49
2023/01/07 02:56:56;;;;;;;5.65;1.77;;;;;;;8.18;100.00;98539.13;5025761;28;20376;-49
2023/01/07 02:59:29;;;;;;;3.03;1.15;;;;;;;8.17;100.00;98541.09;5021618;28;20050;-51
2023/01/07 03:02:01;;;;;;;6.43;1.52;;;;;;;8.15;100.00;98532.44;5079586;23;20048;-47
2023/01/07 03:05:05;;;;;;;6.60;2.20;;;;;;;8.15;100.00;98539.91;5044345;28;20041;-48
2023/01/07 03:07:50;;;;;;;5.65;2.42;;;;;;;8.15;100.00;98535.19;5064209;28;20624;-49
2023/01/07 03:10:47;;;;;;;6.40;1.77;;;;;;;8.16;100.00;98524.94;5062760;28;20040;-50
2023/01/07 03:13:22;;;;;;;3.75;1.77;;;;;;;8.13;100.00;98520.97;5064129;28;20052;-48
2023/01/07 03:16:07;;;;;;;12.93;2.13;;;;;;;8.12;100.00;98513.09;5068877;28;20087;-49
2023/01/07 03:18:51;;;;;;;5.80;1.58;;;;;;;8.10;100.00;98502.44;5066099;28;20079;-56
2023/01/07 03:21:21;;;;;;;2.80;1.30;;;;;;;8.10;100.00;98487.91;5064447;28;20048;-51
2023/01/07 03:23:51;;;;;;;4.25;1.63;;;;;;;8.09;100.00;98480.78;5068608;28;20417;-48
2023/01/07 03:26:25;;;;;;;4.88;1.60;;;;;;;8.08;100.00;98473.69;5068415;28;20066;-48
2023/01/07 03:28:54;;;;;;;8.30;3.30;;;;;;;8.08;100.00;98481.97;5066735;28;20059;-49
2023/01/07 03:31:21;;;;;;;7.05;3.22;;;;;;;8.09;100.00;98486.31;5067488;28;20048;-48
2023/01/07 03:34:09;;;;;;;6.88;3.05;;;;;;;8.08;100.00;98485.50;5075722;28;20052;-48
2023/01/07 03:36:41;;;;;;;7.00;2.05;;;;;;;8.07;100.00;98483.16;5067418;28;20509;-48
2023/01/07 03:39:10;;;;;;;5.90;2.33;;;;;;;8.07;100.00;98467.41;5063031;28;20048;-56
2023/01/07 03:44:24;;;;;;;5.95;1.30;;;;;;;8.06;100.00;98462.25;5068597;28;20414;-50
2023/01/07 03:46:51;;;;;;;6.03;1.52;;;;;;;8.06;100.00;98459.50;5068145;28;20142;-48
2023/01/07 03:49:19;;;;;;;6.30;1.92;;;;;;;8.05;100.00;98450.44;5046731;28;20068;-48
2023/01/07 03:51:48;;;;;;;2.05;0.80;;;;;;;8.05;100.00;98452.44;5067329;28;20397;-48
2023/01/07 03:54:15;;;;;;;8.30;1.27;;;;;;;8.06;100.00;98454.78;5067374;28;20075;-48
2023/01/07 03:56:41;;;;;;;4.43;0.98;;;;;;;8.07;100.00;98455.59;5067554;28;20132;-49
2023/01/07 03:59:08;;;;;;;1.88;0.80;;;;;;;8.07;100.00;98433.56;5067306;28;20664;-48
2023/01/07 04:01:35;;;;;;;1.52;0.82;;;;;;;8.06;100.00;98418.19;5066640;28;20052;-51
2023/01/07 04:04:02;;;;;;;10.93;4.55;;;;;;;8.06;100.00;98418.19;5066872;28;20040;-51
2023/01/07 04:06:29;;;;;;;12.48;4.25;;;;;;;8.06;100.00;98409.91;5067924;28;20094;-48
2023/01/07 04:08:56;;;;;;;9.50;4.10;;;;;;;8.06;100.00;98404.41;5064339;28;20040;-49
2023/01/07 04:11:23;;;;;;;8.30;4.43;;;;;;;8.04;100.00;98392.97;5063416;28;20037;-48
2023/01/07 04:13:49;;;;;;;6.43;2.53;;;;;;;7.98;100.00;98385.09;5067595;28;20391;-54
2023/01/07 04:16:16;;;;;;;5.32;2.50;;;;;;;7.98;100.00;98382.31;5070290;28;20039;-48
2023/01/07 04:18:43;;;;;;;6.35;2.53;;;;;;;7.99;100.00;98385.88;5059907;28;20466;-49
2023/01/07 04:21:09;;;;;;;8.30;2.72;;;;;;;8.02;100.00;98384.31;5065934;28;20037;-49
2023/01/07 04:23:36;;;;;;;7.00;2.50;;;;;;;8.01;100.00;98374.47;5061154;28;20063;-48
2023/01/07 04:26:03;;;;;;;4.50;2.20;;;;;;;8.01;100.00;98377.22;5067168;28;20040;-55
2023/01/07 04:28:30;;;;;;;3.13;2.05;;;;;;;8.01;100.00;98366.19;5066156;28;20039;-48
2023/01/07 04:30:58;;;;;;;5.22;1.98;;;;;;;7.99;100.00;98350.81;5066044;28;20040;-52
2023/01/07 04:33:25;;;;;;;6.95;1.80;;;;;;;7.97;100.00;98352.38;5071850;28;20067;-55
2023/01/07 04:35:52;;;;;;;3.90;1.70;;;;;;;7.94;100.00;98348.44;5071347;28;20044;-49
2023/01/07 04:38:19;;;;;;;6.43;1.70;;;;;;;7.96;100.00;98359.09;5064763;28;20401;-49
2023/01/07 04:40:46;;;;;;;3.65;1.48;;;;;;;7.95;100.00;98344.53;5055962;28;20554;-48
2023/01/07 04:43:13;;;;;;;8.18;2.00;;;;;;;7.95;100.00;98333.50;5066106;28;20083;-48
2023/01/07 04:45:39;;;;;;;6.97;2.58;;;;;;;7.95;100.00;98333.50;5063287;28;20123;-47
2023/01/07 04:48:06;;;;;;;6.78;1.65;;;;;;;7.95;100.00;98333.50;5066443;28;20067;-54
2023/01/07 04:50:33;;;;;;;5.05;1.55;;;;;;;7.95;100.00;98339.00;5067426;28;20044;-48
2023/01/07 04:53:00;;;;;;;4.05;1.33;;;;;;;7.93;100.00;98330.34;5064526;28;20592;-50
2023/01/07 04:55:26;;;;;;;4.78;2.05;;;;;;;7.93;100.00;98324.84;5045994;28;20060;-53
2023/01/07 04:57:54;;;;;;;9.90;2.15;;;;;;;7.91;100.00;98318.94;5067710;28;20049;-48
2023/01/07 05:00:21;;;;;;;7.20;1.52;;;;;;;7.91;100.00;98318.13;5047904;28;20052;-49
2023/01/07 05:02:49;;;;;;;6.63;1.98;;;;;;;7.90;100.00;98311.84;5056625;28;20524;-47
2023/01/07 05:05:15;;;;;;;6.00;1.45;;;;;;;7.89;100.00;98312.19;5063263;28;20043;-48
2023/01/07 05:07:42;;;;;;;5.35;1.30;;;;;;;7.88;100.00;98308.69;5049708;28;20090;-48
2023/01/07 05:10:09;;;;;;;6.05;1.15;;;;;;;7.87;100.00;98314.56;5067380;28;20529;-49
2023/01/07 05:12:36;;;;;;;6.45;1.33;;;;;;;7.87;100.00;98312.59;5047131;28;20041;-53
2023/01/07 05:15:04;;;;;;;4.15;0.98;;;;;;;7.87;100.00;98298.81;5058134;28;20295;-47
2023/01/07 05:17:31;;;;;;;3.15;1.02;;;;;;;7.86;100.00;98301.97;5065776;28;20405;-48
2023/01/07 05:19:58;;;;;;;2.15;0.90;;;;;;;7.83;100.00;98291.72;5065382;28;20504;-57
2023/01/07 05:22:25;;;;;;;4.03;1.00;;;;;;;7.78;100.00;98281.84;5062785;28;20123;-47
2023/01/07 05:24:52;;;;;;;4.55;1.83;;;;;;;7.71;100.00;98286.53;5064519;28;20051;-48
2023/01/07 05:27:18;;;;;;;8.52;1.17;;;;;;;7.67;100.00;98283.78;5056410;28;20103;-54
2023/01/07 05:29:45;;;;;;;9.60;1.88;;;;;;;7.66;100.00;98276.69;5064508;28;20044;-50
2023/01/07 05:32:12;;;;;;;1.13;0.68;;;;;;;7.69;100.00;98277.88;5062820;28;20506;-51
2023/01/07 05:34:39;;;;;;;4.72;0.80;;;;;;;7.69;100.00;98262.16;5076048;28;20044;-47
2023/01/07 05:37:05;;;;;;;1.20;0.73;;;;;;;7.70;100.00;98261.00;5066896;28;20132;-47
2023/01/07 05:39:32;;;;;;;2.47;0.80;;;;;;;7.73;100.00;98260.19;5067158;28;20056;-48
2023/01/07 05:41:59;;;;;;;4.57;0.57;;;;;;;7.74;100.00;98261.78;5067127;28;20401;-49
2023/01/07 05:44:26;;;;;;;7.95;0.52;;;;;;;7.76;100.00;98259.44;5066767;28;20055;-49
2023/01/07 05:46:53;;;;;;;2.78;0.75;;;;;;;7.79;100.00;98264.16;5066111;28;20173;-47
2023/01/07 05:49:19;;;;;;;3.17;0.57;;;;;;;7.81;100.00;98261.81;5059914;28;20044;-47
2023/01/07 05:51:46;;;;;;;3.90;0.80;;;;;;;7.82;100.00;98255.13;5046903;28;20048;-48
2023/01/07 05:54:13;;;;;;;5.60;1.55;;;;;;;7.81;100.00;98250.78;5065315;28;20131;-48
2023/01/07 05:56:40;;;;;;;3.50;0.68;;;;;;;7.79;100.00;98249.59;5066777;28;20044;-48
2023/01/07 05:59:06;;;;;;;4.88;0.55;;;;;;;7.80;100.00;98232.69;5066513;28;20139;-49
2023/01/07 06:01:33;;;;;;;3.25;0.68;;;;;;;7.82;100.00;98224.84;5066436;28;20113;-47
2023/01/07 06:04:00;;;;;;;4.95;0.90;;;;;;;7.83;100.00;98250.41;5066812;28;20397;-48
2023/01/07 06:06:27;;;;;;;3.25;0.60;;;;;;;7.82;100.00;98241.34;5066798;28;20132;-47
2023/01/07 06:08:54;;;;;;;7.05;0.90;;;;;;;7.81;100.00;98239.75;5066355;28;20044;-47
2023/01/07 06:11:20;;;;;;;2.83;0.52;;;;;;;7.81;100.00;98239.00;5054631;28;20128;-48
2023/01/07 06:13:47;;;;;;;4.10;0.55;;;;;;;7.80;100.00;98243.72;5065800;28;20068;-51
2023/01/07 06:16:14;;;;;;;2.33;0.50;;;;;;;7.77;100.00;98238.97;5051764;28;20131;-48
2023/01/07 06:18:41;;;;;;;3.28;0.90;;;;;;;7.76;100.00;98237.38;5065106;28;20359;-48
2023/01/07 06:21:08;;;;;;;6.10;2.00;;;;;;;7.75;100.00;98230.31;5064932;28;20127;-48
2023/01/07 06:23:36;;;;;;;2.78;0.50;;;;;;;7.76;100.00;98214.56;5052461;28;20410;-54
2023/01/07 06:26:02;;;;;;;5.43;1.13;;;;;;;7.74;100.00;98203.16;5065680;28;20398;-47
2023/01/07 06:28:29;;;;;;;2.60;0.73;;;;;;;7.74;100.00;98205.91;5062300;28;20478;-48
2023/01/07 06:30:56;;;;;;;5.22;1.90;;;;;;;7.73;100.00;98204.34;5063483;28;20123;-48
2023/01/07 06:33:22;;;;;;;11.13;1.88;;;;;;;7.73;100.00;98193.34;5049436;28;20045;-49
2023/01/07 06:35:50;;;;;;;5.93;1.00;;;;;;;7.71;100.00;98190.94;5065339;28;20028;-47
2023/01/07 06:38:17;;;;;;;3.85;0.85;;;;;;;7.68;100.00;98183.47;5065413;28;20064;-48
2023/01/07 06:40:44;;;;;;;12.77;3.03;;;;;;;7.68;100.00;98186.22;5064136;28;20067;-48
2023/01/07 06:43:10;;;;;;;5.68;1.08;;;;;;;7.68;100.00;98194.47;5063281;28;20044;-48
2023/01/07 06:45:37;;;;;;;9.95;1.00;;;;;;;7.66;100.00;98194.09;5064574;28;20037;-47
2023/01/07 06:48:07;;;;;;;5.57;1.13;;;;;;;7.64;100.00;98190.94;5067018;28;20497;-49
2023/01/07 06:50:33;;;;;;;3.33;1.25;;;;;;;7.65;100.00;98189.75;5050884;28;20493;-50
2023/01/07 06:53:00;;;;;;;2.80;0.73;;;;;;;7.64;100.00;98185.44;5070259;28;20041;-48
2023/01/07 06:55:27;;;;;;;5.45;1.00;;;;;;;7.62;100.00;98193.28;5068164;28;20269;-47
2023/01/07 06:57:53;;;;;;;3.55;0.70;;;;;;;7.61;100.00;98190.91;5068491;28;20040;-47
2023/01/07 07:00:20;;;;;;;2.20;0.63;;;;;;;7.59;100.00;98194.06;5064969;28;20326;-52
2023/01/07 07:02:47;;;;;;;3.58;0.80;;;;;;;7.59;100.00;98182.25;5062141;28;20064;-48
2023/01/07 07:05:14;;;;;;;8.55;1.10;;;;;;;7.58;100.00;98192.47;5067896;28;20753;-47
2023/01/07 07:07:41;;;;;;;4.10;0.77;;;;;;;7.55;100.00;98182.22;5069008;28;20501;-47
2023/01/07 07:10:08;;;;;;;9.00;1.30;;;;;;;7.53;100.00;98187.34;5068490;28;20115;-49
2023/01/07 07:12:36;;;;;;;8.55;2.05;;;;;;;7.49;100.00;98178.28;5067951;28;20044;-49
2023/01/07 07:15:06;;;;;;;4.63;1.02;;;;;;;7.45;100.00;98176.69;5067003;28;20048;-52
2023/01/07 07:17:33;;;;;;;7.90;2.08;;;;;;;7.39;100.00;98179.00;5070902;28;20316;-50
2023/01/07 07:20:00;;;;;;;4.53;0.80;;;;;;;7.32;100.00;98165.22;5066617;28;20040;-47
2023/01/07 07:22:27;;;;;;;5.97;0.95;;;;;;;7.28;100.00;98169.94;5067181;28;20135;-48
2023/01/07 07:24:54;;;;;;;4.75;1.65;;;;;;;7.23;100.00;98171.06;5067368;28;20040;-53
2023/01/07 07:27:20;;;;;;;11.02;1.40;;;;;;;7.18;100.00;98173.41;5068394;28;20055;-48
2023/01/07 07:29:47;;;;;;;8.50;1.80;;;;;;;7.13;100.00;98169.06;5050316;28;20568;-47
2023/01/07 07:32:14;;;;;;;12.95;2.90;;;;;;;7.13;100.00;98176.53;5067722;28;20046;-49
2023/01/07 07:34:40;;;;;;;7.78;1.20;;;;;;;7.10;99.94;98172.56;5033825;28;20133;-49
2023/01/07 07:37:07;;;;;;;9.05;1.27;;;;;;;7.09;99.56;98183.97;5014328;28;20428;-48
2023/01/07 07:39:34;;;;;;;10.98;1.50;;;;;;;7.08;99.50;98183.19;5034324;28;20782;-49
2023/01/07 07:42:02;;;;;;;6.20;1.85;;;;;;;7.05;99.29;98174.91;5033845;28;20044;-50
2023/01/07 07:44:29;;;;;;;6.82;1.15;;;;;;;7.02;99.24;98178.41;5061021;28;20041;-49
2023/01/07 07:46:56;;;;;;;6.47;1.00;;;;;;;7.00;99.00;98172.50;5065978;28;20052;-49
2023/01/07 07:49:23;;;;;;;9.20;2.50;;;;;;;6.97;98.74;98171.31;5067202;28;20037;-48
2023/01/07 07:51:49;;;;;;;8.07;1.50;;;;;;;6.97;98.70;98167.78;5066546;28;20418;-51
2023/01/07 07:54:16;;;;;;;6.88;1.02;;;;;;;6.97;98.50;98162.28;5061475;28;20047;-47
2023/01/07 07:56:43;;;;;;;11.65;3.20;;;;;;;6.92;98.34;98163.44;5067639;28;20052;-50
2023/01/07 07:59:09;;;;;;;6.57;1.50;;;;;;;6.86;98.06;98156.72;5064491;28;20079;-55
2023/01/07 08:01:36;;;;;;;9.68;1.77;;;;;;;6.82;98.10;98163.38;5064846;28;20063;-47
2023/01/07 08:04:03;;;;;;;11.40;1.92;;;;;;;6.79;97.95;98158.63;5067591;28;20474;-50
2023/01/07 08:06:30;;;;;;;4.00;1.00;;;;;;;6.75;97.75;98162.13;5067182;28;20115;-49
2023/01/07 08:08:57;;;;;;;11.68;1.70;;;;;;;6.73;97.43;98167.25;5056254;28;20056;-48
2023/01/07 08:11:23;;;;;;;7.28;2.25;;;;;;;6.70;97.33;98158.94;5068553;28;20048;-48
2023/01/07 08:13:50;;;;;;;9.90;1.63;;;;;;;6.68;97.04;98151.09;5060749;28;20409;-48
2023/01/07 08:16:17;;;;;;;7.15;1.20;;;;;;;6.64;96.98;98150.31;5050119;28;20048;-48
2023/01/07 08:18:44;;;;;;;5.93;1.20;;;;;;;6.62;96.82;98147.13;5054667;28;20125;-48
2023/01/07 08:21:10;;;;;;;16.33;2.80;;;;;;;6.61;96.69;98150.25;5066764;28;20063;-48
2023/01/07 08:23:37;;;;;;;12.43;2.75;;;;;;;6.56;96.58;98145.91;5068014;28;20044;-47
2023/01/07 08:26:04;;;;;;;4.70;1.40;;;;;;;6.53;96.39;98134.88;5067142;28;20083;-48
2023/01/07 08:28:32;;;;;;;10.23;1.63;;;;;;;6.50;96.49;98127.41;5064374;28;20052;-48
2023/01/07 08:31:03;;;;;;;10.90;1.80;;;;;;;6.48;96.16;98132.50;5064860;28;20040;-47
2023/01/07 08:33:36;;;;;;;11.13;2.63;;;;;;;6.46;95.97;98137.59;5071727;28;20052;-49
2023/01/07 08:36:05;;;;;;;14.15;1.85;;;;;;;6.43;95.78;98133.66;5048870;28;20120;-47
2023/01/07 08:38:37;;;;;;;6.60;1.55;;;;;;;6.43;95.64;98132.84;5050222;28;20588;-48
2023/01/07 08:41:04;;;;;;;10.88;1.80;;;;;;;6.42;95.46;98137.56;5067691;28;20405;-48
2023/01/07 08:43:32;;;;;;;9.50;1.90;;;;;;;6.41;95.24;98130.47;5059658;28;20235;-48
2023/01/07 08:45:59;;;;;;;8.07;2.03;;;;;;;6.40;95.38;98134.41;5067797;28;20087;-48
2023/01/07 08:48:25;;;;;;;10.80;2.00;;;;;;;6.39;95.09;98135.56;5064058;28;20521;-57
2023/01/07 08:50:53;;;;;;;15.63;2.97;;;;;;;6.40;94.60;98134.41;5068491;28;20127;-47
2023/01/07 08:53:21;;;;;;;8.00;2.00;;;;;;;6.39;94.73;98132.81;5067510;28;20083;-53
2023/01/07 08:55:48;;;;;;;9.38;1.70;;;;;;;6.39;94.57;98127.31;5066838;28;20044;-51
2023/01/07 08:58:16;;;;;;;11.73;1.85;;;;;;;6.37;94.34;98128.88;5068057;28;20044;-52
2023/01/07 09:00:43;;;;;;;16.08;2.50;;;;;;;6.35;94.35;98115.53;5066537;28;20048;-51
2023/01/07 09:03:10;;;;;;;9.85;2.47;;;;;;;6.36;94.20;98110.81;5065458;28;20054;-48
2023/01/07 09:05:37;;;;;;;9.02;2.08;;;;;;;6.35;94.26;98104.53;5065656;28;20040;-48
2023/01/07 09:08:04;;;;;;;12.48;2.35;;;;;;;6.35;93.89;98109.25;5049844;28;20147;-49
2023/01/07 09:10:30;;;;;;;10.57;2.00;;;;;;;6.38;93.66;98109.25;5066786;28;20041;-48
2023/01/07 09:12:57;;;;;;;10.40;1.77;;;;;;;6.39;93.69;98110.84;5033240;28;20046;-53
2023/01/07 09:15:24;;;;;;;9.13;1.77;;;;;;;6.41;93.07;98107.69;5066379;28;20048;-47
2023/01/07 09:17:53;;;;;;;8.70;1.95;;;;;;;6.42;92.90;98104.59;5060056;28;20052;-49
2023/01/07 09:20:20;;;;;;;12.05;3.25;;;;;;;6.44;92.85;98109.69;5067150;28;20044;-48
2023/01/07 09:22:47;;;;;;;17.85;1.92;;;;;;;6.45;92.58;98098.31;5067204;28;20059;-48
2023/01/07 09:25:13;;;;;;;8.30;2.13;;;;;;;6.46;92.24;98105.38;5067177;28;20667;-48
2023/01/07 09:27:41;;;;;;;9.52;1.85;;;;;;;6.48;91.91;98086.56;5066930;28;20416;-48
2023/01/07 09:30:08;;;;;;;11.52;3.08;;;;;;;6.55;91.78;98100.34;5066304;28;20051;-48
2023/01/07 09:32:35;;;;;;;10.13;1.83;;;;;;;6.59;91.37;98089.38;5066832;28;20465;-55
2023/01/07 09:35:02;;;;;;;5.75;1.52;;;;;;;6.60;90.78;98091.75;5073681;28;20068;-48
2023/01/07 09:37:29;;;;;;;10.73;2.60;;;;;;;6.63;90.49;98077.25;5066852;28;20051;-46
2023/01/07 09:40:00;;;;;;;8.40;1.92;;;;;;;6.68;90.65;98079.63;5066987;28;20084;-47
2023/01/07 09:42:53;;;;;;;6.53;1.10;;;;;;;6.69;90.35;98075.72;5066020;28;20522;-50
2023/01/07 09:45:24;;;;;;;9.68;2.58;;;;;;;6.72;90.31;98080.41;5067275;28;20541;-48
2023/01/07 09:47:59;;;;;;;12.85;1.38;;;;;;;6.70;90.10;98073.72;5066815;28;20036;-48
2023/01/07 09:50:44;;;;;;;14.30;2.33;;;;;;;6.69;90.25;98069.41;5067053;28;20063;-48
2023/01/07 09:53:18;;;;;;;12.38;1.67;;;;;;;6.66;90.10;98076.47;5065769;28;20479;-47
2023/01/07 09:55:48;;;;;;;6.43;1.83;;;;;;;6.66;90.17;98068.22;5066254;28;20040;-49
2023/01/07 09:58:35;;;;;;;8.85;2.03;;;;;;;6.66;90.24;98068.22;5066790;28;20051;-49
2023/01/07 10:01:27;;;;;;;13.25;3.88;;;;;;;6.66;90.02;98070.97;5066364;28;20048;-48
2023/01/07 10:04:06;;;;;;;7.68;2.05;;;;;;;6.66;90.11;98057.22;5048231;28;20048;-48
2023/01/07 10:06:58;;;;;;;13.27;1.85;;;;;;;6.66;90.15;98059.97;5066517;28;20079;-51
2023/01/07 10:09:55;;;;;;;4.60;1.65;;;;;;;6.69;90.26;98047.41;5066200;28;20047;-47
2023/01/07 10:12:43;;;;;;;9.98;2.42;;;;;;;6.73;90.29;98054.50;5055221;28;20048;-47
2023/01/07 10:16:01;;;;;;;17.90;2.80;;;;;;;6.79;90.36;98056.88;5066992;28;20074;-47
2023/01/07 10:18:53;;;;;;;11.60;2.10;;;;;;;6.84;90.53;98059.25;5019846;28;20490;-48
2023/01/07 10:21:40;;;;;;;24.83;7.43;;;;;;;6.87;90.66;98059.28;5069194;28;20116;-50
2023/01/07 10:24:26;;;;;;;11.63;4.43;;;;;;;6.91;90.84;98049.09;5070832;28;20304;-51
2023/01/07 10:27:06;;;;;;;19.27;4.88;;;;;;;6.98;90.96;98051.09;5058215;28;20119;-53
2023/01/07 10:29:41;;;;;;;17.20;3.35;;;;;;;7.10;91.17;98048.78;5070266;28;20040;-49
2023/01/07 10:32:20;;;;;;;17.45;3.95;;;;;;;7.25;91.26;98053.16;5069542;28;20048;-54
2023/01/07 10:34:50;;;;;;;15.38;2.78;;;;;;;7.39;91.23;98027.63;5062641;28;20044;-48
2023/01/07 10:37:39;;;;;;;19.58;2.78;;;;;;;7.55;91.30;98036.31;5070145;28;20045;-48
2023/01/07 10:40:41;;;;;;;13.55;2.13;;;;;;;7.75;91.00;98023.78;5059952;28;20389;-48
2023/01/07 10:43:11;;;;;;;15.50;2.35;;;;;;;7.88;91.33;98022.19;5069030;28;20051;-49
2023/01/07 10:45:57;;;;;;;6.63;1.63;;;;;;;7.96;91.19;98034.78;5069930;28;20048;-48
2023/01/07 10:48:56;;;;;;;12.65;2.28;;;;;;;7.99;91.03;98014.69;5069865;28;20045;-49
2023/01/07 10:51:44;;;;;;;12.90;2.67;;;;;;;7.95;91.10;98005.66;5025155;28;20117;-48
2023/01/07 10:54:29;;;;;;;9.25;2.60;;;;;;;7.90;91.46;98005.28;5067956;28;20044;-48
2023/01/07 10:57:01;;;;;;;16.65;3.53;;;;;;;7.85;91.72;97992.69;5068931;28;20462;-48
2023/01/07 10:59:31;;;;;;;7.45;2.03;;;;;;;7.82;91.94;97963.16;5068833;28;20083;-53
2023/01/07 11:01:59;;;;;;;20.70;4.63;;;;;;;7.82;92.19;97968.69;5064571;28;20053;-48
2023/01/07 11:04:26;;;;;;;14.27;3.55;;;;;;;7.82;92.39;97965.13;5069526;28;20045;-48
2023/01/07 11:07:09;;;;;;;6.45;2.45;;;;;;;7.81;92.37;97925.03;5069596;28;20042;-48
2023/01/07 11:09:42;;;;;;;12.10;2.70;;;;;;;7.80;92.41;97928.94;5062446;28;20098;-47
2023/01/07 11:12:47;;;;;;;17.15;2.65;;;;;;;7.80;92.47;97934.44;5066471;28;20049;-49
2023/01/07 11:15:22;;;;;;;13.73;2.70;;;;;;;7.80;92.57;97929.72;5028950;28;20834;-48
2023/01/07 11:17:49;;;;;;;17.08;3.03;;;;;;;7.86;92.73;97922.63;5064338;28;20040;-48
2023/01/07 11:20:40;;;;;;;13.30;3.10;;;;;;;7.95;92.72;97903.72;5070766;28;20061;-51
2023/01/07 11:23:25;;;;;;;10.20;1.48;;;;;;;8.04;92.29;97911.59;5059468;28;20049;-47
2023/01/07 11:25:54;;;;;;;9.07;1.60;;;;;;;8.10;92.35;97917.50;5066131;28;20044;-50
2023/01/07 11:28:27;;;;;;;8.88;2.03;;;;;;;8.13;92.10;97903.69;5069394;28;20528;-49
2023/01/07 11:30:57;;;;;;;13.93;2.25;;;;;;;8.17;91.91;97898.16;5068744;28;20064;-49
2023/01/07 11:33:33;;;;;;;3.75;0.82;;;;;;;8.21;91.91;97913.50;5067251;28;20056;-49
2023/01/07 11:36:37;;;;;;;5.82;0.88;;;;;;;8.33;91.55;97923.34;5054295;28;20052;-49
2023/01/07 11:39:19;;;;;;;6.18;0.88;;;;;;;8.40;91.15;97942.63;5058226;28;20119;-49
2023/01/07 11:42:58;;;;;;;3.58;0.68;;;;;;;8.44;89.86;97930.41;5068952;28;20044;-47
2023/01/07 11:45:20;;;;;;;3.30;0.52;;;;;;;8.41;88.69;97924.91;5056562;28;20811;-49
2023/01/07 11:48:03;;;;;;;2.58;0.47;;;;;;;8.41;88.60;97911.13;5069744;28;20047;-50
2023/01/07 11:50:37;;;;;;;1.42;0.40;;;;;;;8.46;88.28;97905.19;5068283;28;20125;-48
2023/01/07 11:53:13;;;;;;;5.13;0.63;;;;;;;8.49;87.94;97913.47;5070742;28;20044;-52
2023/01/07 11:55:59;;;;;;;5.68;0.60;;;;;;;8.52;88.00;97887.06;5067733;28;20452;-47
2023/01/07 11:58:31;;;;;;;3.38;0.65;;;;;;;8.47;87.68;97893.00;5069896;28;20072;-47
2023/01/07 12:01:02;;;;;;;4.28;0.60;;;;;;;8.37;86.77;97899.31;5069412;28;20056;-48